sensor_id;sensor_type;location;lat;lon;timestamp;pressure;altitude;pressure_sealevel;temperature;humidity
19777;BME280;10047;42.490;26.012;2023-08-17T00:00:19;100559.44;;;24.26;100.00
19777;BME280;10047;42.490;26.012;2023-08-17T00:02:44;100579.78;;;24.43;100.00
19777;BME280;10047;42.490;26.012;2023-08-17T00:05:10;100555.28;;;24.12;100.00
19777;BME280;10047;42.490;26.012;2023-08-17T00:07:36;100558.13;;;24.20;100.00
19777;BME280;10047;42.490;26.012;2023-08-17T00:10:02;100594.38;;;24.67;100.00
19777;BME280;10047;42.490;26.012;2023-08-17T00:12:28;100615.22;;;24.78;100.00
19777;BME280;10047;42.490;26.012;2023-08-17T00:14:54;100567.91;;;24.17;100.00
19777;BME280;10047;42.490;26.012;2023-08-17T00:17:20;100609.59;;;24.61;100.00
19777;BME280;10047;42.490;26.012;2023-08-17T00:19:45;100613.38;;;24.57;100.00
19777;BME280;10047;42.490;26.012;2023-08-17T00:22:11;100607.25;;;24.69;100.00
19777;BME280;10047;42.490;26.012;2023-08-17T00:24:37;100614.47;;;24.65;100.00
19777;BME280;10047;42.490;26.012;2023-08-17T00:27:03;100590.22;;;24.65;100.00
19777;BME280;10047;42.490;26.012;2023-08-17T00:29:29;100555.88;;;24.27;100.00
19777;BME280;10047;42.490;26.012;2023-08-17T00:31:55;100549.97;;;24.14;100.00
19777;BME280;10047;42.490;26.012;2023-08-17T00:34:20;100557.63;;;24.15;100.00
19777;BME280;10047;42.490;26.012;2023-08-17T00:36:46;100600.63;;;24.65;100.00
19777;BME280;10047;42.490;26.012;2023-08-17T00:39:11;100565.44;;;24.15;100.00
19777;BME280;10047;42.490;26.012;2023-08-17T00:41:36;100620.88;;;24.27;100.00
19777;BME280;10047;42.490;26.012;2023-08-17T00:44:02;100599.28;;;24.37;100.00
19777;BME280;10047;42.490;26.012;2023-08-17T00:46:29;100551.47;;;23.81;100.00
19777;BME280;10047;42.490;26.012;2023-08-17T00:48:56;100610.00;;;24.22;100.00
19777;BME280;10047;42.490;26.012;2023-08-17T00:51:23;100609.63;;;23.91;100.00
19777;BME280;10047;42.490;26.012;2023-08-17T00:53:51;100592.31;;;24.03;100.00
19777;BME280;10047;42.490;26.012;2023-08-17T00:56:16;100591.78;;;23.63;100.00
19777;BME280;10047;42.490;26.012;2023-08-17T00:58:43;100524.78;;;23.45;100.00
19777;BME280;10047;42.490;26.012;2023-08-17T01:01:08;100586.81;;;23.60;100.00
19777;BME280;10047;42.490;26.012;2023-08-17T01:03:34;100558.47;;;23.81;100.00
19777;BME280;10047;42.490;26.012;2023-08-17T01:05:59;100526.28;;;23.23;100.00
19777;BME280;10047;42.490;26.012;2023-08-17T01:08:28;100540.56;;;23.42;100.00
19777;BME280;10047;42.490;26.012;2023-08-17T01:13:49;100487.72;;;23.43;100.00
19777;BME280;10047;42.490;26.012;2023-08-17T01:16:22;100512.03;;;23.05;100.00
19777;BME280;10047;42.490;26.012;2023-08-17T01:18:51;100483.97;;;23.47;100.00
19777;BME280;10047;42.490;26.012;2023-08-17T01:21:17;100536.59;;;23.49;100.00
19777;BME280;10047;42.490;26.012;2023-08-17T01:23:46;100530.53;;;23.37;100.00
19777;BME280;10047;42.490;26.012;2023-08-17T01:26:12;100507.91;;;23.26;100.00
19777;BME280;10047;42.490;26.012;2023-08-17T01:28:42;100474.59;;;23.20;100.00
19777;BME280;10047;42.490;26.012;2023-08-17T01:33:43;100537.19;;;23.52;100.00
19777;BME280;10047;42.490;26.012;2023-08-17T01:38:44;100490.34;;;23.30;100.00
19777;BME280;10047;42.490;26.012;2023-08-17T01:41:10;100489.00;;;23.24;100.00
19777;BME280;10047;42.490;26.012;2023-08-17T01:43:40;100476.34;;;23.33;100.00
19777;BME280;10047;42.490;26.012;2023-08-17T01:46:07;100487.84;;;23.41;100.00
19777;BME280;10047;42.490;26.012;2023-08-17T01:48:32;100523.09;;;23.67;100.00
19777;BME280;10047;42.490;26.012;2023-08-17T01:50:58;100488.38;;;23.34;100.00
19777;BME280;10047;42.490;26.012;2023-08-17T01:53:23;100535.97;;;23.69;100.00
19777;BME280;10047;42.490;26.012;2023-08-17T01:55:49;100500.38;;;23.47;100.00
19777;BME280;10047;42.490;26.012;2023-08-17T01:58:14;100482.97;;;23.37;100.00
19777;BME280;10047;42.490;26.012;2023-08-17T02:00:39;100489.88;;;23.49;100.00
19777;BME280;10047;42.490;26.012;2023-08-17T02:03:05;100522.31;;;23.78;100.00
19777;BME280;10047;42.490;26.012;2023-08-17T02:05:30;100535.16;;;23.68;100.00
19777;BME280;10047;42.490;26.012;2023-08-17T02:07:56;100455.47;;;23.34;100.00
19777;BME280;10047;42.490;26.012;2023-08-17T02:10:21;100429.63;;;22.85;100.00
19777;BME280;10047;42.490;26.012;2023-08-17T02:12:46;100533.97;;;23.25;100.00
19777;BME280;10047;42.490;26.012;2023-08-17T02:15:12;100494.25;;;23.12;100.00
19777;BME280;10047;42.490;26.012;2023-08-17T02:17:38;100514.84;;;23.02;100.00
19777;BME280;10047;42.490;26.012;2023-08-17T02:20:03;100446.94;;;23.08;100.00
19777;BME280;10047;42.490;26.012;2023-08-17T02:22:29;100525.78;;;23.18;100.00
19777;BME280;10047;42.490;26.012;2023-08-17T02:24:55;100468.16;;;22.90;100.00
19777;BME280;10047;42.490;26.012;2023-08-17T02:27:20;100470.13;;;22.63;100.00
19777;BME280;10047;42.490;26.012;2023-08-17T02:29:45;100451.25;;;22.61;100.00
19777;BME280;10047;42.490;26.012;2023-08-17T02:32:11;100511.34;;;22.91;100.00
19777;BME280;10047;42.490;26.012;2023-08-17T02:34:36;100445.81;;;22.76;100.00
19777;BME280;10047;42.490;26.012;2023-08-17T02:37:01;100448.81;;;23.06;100.00
19777;BME280;10047;42.490;26.012;2023-08-17T02:39:27;100509.19;;;23.21;100.00
19777;BME280;10047;42.490;26.012;2023-08-17T02:41:52;100476.72;;;23.15;100.00
19777;BME280;10047;42.490;26.012;2023-08-17T02:44:18;100487.13;;;23.39;100.00
19777;BME280;10047;42.490;26.012;2023-08-17T02:46:43;100446.53;;;23.02;100.00
19777;BME280;10047;42.490;26.012;2023-08-17T02:49:08;100457.00;;;23.13;100.00
19777;BME280;10047;42.490;26.012;2023-08-17T02:51:34;100437.78;;;23.15;100.00
19777;BME280;10047;42.490;26.012;2023-08-17T02:53:59;100497.34;;;23.17;100.00
19777;BME280;10047;42.490;26.012;2023-08-17T02:56:25;100504.78;;;23.34;100.00
19777;BME280;10047;42.490;26.012;2023-08-17T02:58:50;100493.22;;;23.14;100.00
19777;BME280;10047;42.490;26.012;2023-08-17T03:01:15;100447.22;;;22.93;100.00
19777;BME280;10047;42.490;26.012;2023-08-17T03:03:41;100451.38;;;22.95;100.00
19777;BME280;10047;42.490;26.012;2023-08-17T03:06:07;100450.72;;;22.92;100.00
19777;BME280;10047;42.490;26.012;2023-08-17T03:08:33;100450.28;;;22.98;100.00
19777;BME280;10047;42.490;26.012;2023-08-17T03:10:58;100491.16;;;23.43;100.00
19777;BME280;10047;42.490;26.012;2023-08-17T03:13:24;100510.38;;;23.28;100.00
19777;BME280;10047;42.490;26.012;2023-08-17T03:15:49;100504.06;;;23.32;100.00
19777;BME280;10047;42.490;26.012;2023-08-17T03:18:15;100515.63;;;23.15;100.00
19777;BME280;10047;42.490;26.012;2023-08-17T03:20:40;100447.78;;;22.73;100.00
19777;BME280;10047;42.490;26.012;2023-08-17T03:23:05;100501.03;;;23.02;100.00
19777;BME280;10047;42.490;26.012;2023-08-17T03:25:33;100516.53;;;22.91;100.00
19777;BME280;10047;42.490;26.012;2023-08-17T03:28:00;100483.31;;;23.19;100.00
19777;BME280;10047;42.490;26.012;2023-08-17T03:30:25;100497.50;;;23.03;100.00
19777;BME280;10047;42.490;26.012;2023-08-17T03:32:50;100510.78;;;22.98;100.00
19777;BME280;10047;42.490;26.012;2023-08-17T03:35:16;100501.75;;;23.40;100.00
19777;BME280;10047;42.490;26.012;2023-08-17T03:37:41;100487.56;;;23.20;100.00
19777;BME280;10047;42.490;26.012;2023-08-17T03:40:07;100448.69;;;22.84;100.00
19777;BME280;10047;42.490;26.012;2023-08-17T03:42:33;100503.75;;;23.24;100.00
19777;BME280;10047;42.490;26.012;2023-08-17T03:44:58;100486.13;;;22.93;100.00
19777;BME280;10047;42.490;26.012;2023-08-17T03:47:23;100458.50;;;22.56;100.00
19777;BME280;10047;42.490;26.012;2023-08-17T03:49:49;100472.38;;;22.55;100.00
19777;BME280;10047;42.490;26.012;2023-08-17T03:52:14;100514.72;;;22.68;100.00
19777;BME280;10047;42.490;26.012;2023-08-17T03:54:40;100502.25;;;22.48;100.00
19777;BME280;10047;42.490;26.012;2023-08-17T03:57:05;100502.69;;;22.67;100.00
19777;BME280;10047;42.490;26.012;2023-08-17T03:59:30;100482.75;;;22.55;100.00
19777;BME280;10047;42.490;26.012;2023-08-17T04:01:56;100481.84;;;22.30;100.00
19777;BME280;10047;42.490;26.012;2023-08-17T04:04:21;100396.38;;;22.05;100.00
19777;BME280;10047;42.490;26.012;2023-08-17T04:06:47;100424.69;;;22.70;100.00
19777;BME280;10047;42.490;26.012;2023-08-17T04:09:12;100504.06;;;22.96;100.00
19777;BME280;10047;42.490;26.012;2023-08-17T04:11:38;100490.88;;;22.99;100.00
19777;BME280;10047;42.490;26.012;2023-08-17T04:14:03;100503.28;;;22.83;100.00
19777;BME280;10047;42.490;26.012;2023-08-17T04:16:29;100486.72;;;22.96;100.00
19777;BME280;10047;42.490;26.012;2023-08-17T04:18:55;100467.25;;;22.91;100.00
19777;BME280;10047;42.490;26.012;2023-08-17T04:21:20;100442.34;;;22.39;100.00
19777;BME280;10047;42.490;26.012;2023-08-17T04:23:46;100475.63;;;22.94;100.00
19777;BME280;10047;42.490;26.012;2023-08-17T04:26:11;100474.88;;;23.28;100.00
19777;BME280;10047;42.490;26.012;2023-08-17T04:28:37;100475.66;;;23.18;100.00
19777;BME280;10047;42.490;26.012;2023-08-17T04:31:03;100472.72;;;23.35;100.00
19777;BME280;10047;42.490;26.012;2023-08-17T04:33:28;100490.63;;;23.38;100.00
19777;BME280;10047;42.490;26.012;2023-08-17T04:35:54;100475.38;;;23.57;100.00
19777;BME280;10047;42.490;26.012;2023-08-17T04:38:20;100457.75;;;23.02;100.00
19777;BME280;10047;42.490;26.012;2023-08-17T04:40:46;100492.28;;;23.63;100.00
19777;BME280;10047;42.490;26.012;2023-08-17T04:43:11;100461.25;;;24.29;100.00
19777;BME280;10047;42.490;26.012;2023-08-17T04:45:37;100440.94;;;23.77;100.00
19777;BME280;10047;42.490;26.012;2023-08-17T04:48:02;100444.63;;;23.75;100.00
19777;BME280;10047;42.490;26.012;2023-08-17T04:50:28;100501.28;;;24.27;100.00
19777;BME280;10047;42.490;26.012;2023-08-17T04:52:53;100495.53;;;24.45;100.00
19777;BME280;10047;42.490;26.012;2023-08-17T04:55:19;100500.72;;;24.67;100.00
19777;BME280;10047;42.490;26.012;2023-08-17T04:57:44;100506.50;;;24.71;100.00
19777;BME280;10047;42.490;26.012;2023-08-17T05:00:10;100507.22;;;24.84;100.00
19777;BME280;10047;42.490;26.012;2023-08-17T05:02:36;100487.34;;;24.94;100.00
19777;BME280;10047;42.490;26.012;2023-08-17T05:05:06;100483.84;;;25.16;100.00
19777;BME280;10047;42.490;26.012;2023-08-17T05:07:33;100502.09;;;25.47;100.00
19777;BME280;10047;42.490;26.012;2023-08-17T05:09:59;100503.69;;;25.70;100.00
19777;BME280;10047;42.490;26.012;2023-08-17T05:12:24;100468.47;;;25.76;100.00
19777;BME280;10047;42.490;26.012;2023-08-17T05:14:50;100520.97;;;26.13;100.00
19777;BME280;10047;42.490;26.012;2023-08-17T05:17:15;100466.91;;;26.15;100.00
19777;BME280;10047;42.490;26.012;2023-08-17T05:19:41;100437.72;;;25.70;100.00
19777;BME280;10047;42.490;26.012;2023-08-17T05:22:11;100541.81;;;26.54;100.00
19777;BME280;10047;42.490;26.012;2023-08-17T05:24:37;100551.91;;;26.68;100.00
19777;BME280;10047;42.490;26.012;2023-08-17T05:27:03;100486.84;;;26.16;100.00
19777;BME280;10047;42.490;26.012;2023-08-17T05:29:28;100486.16;;;26.44;100.00
19777;BME280;10047;42.490;26.012;2023-08-17T05:31:54;100507.75;;;26.55;100.00
19777;BME280;10047;42.490;26.012;2023-08-17T05:34:19;100484.94;;;26.48;100.00
19777;BME280;10047;42.490;26.012;2023-08-17T05:36:45;100502.53;;;26.86;100.00
19777;BME280;10047;42.490;26.012;2023-08-17T05:39:10;100530.13;;;26.88;100.00
19777;BME280;10047;42.490;26.012;2023-08-17T05:41:36;100519.81;;;26.77;100.00
19777;BME280;10047;42.490;26.012;2023-08-17T05:44:01;100490.06;;;27.08;100.00
19777;BME280;10047;42.490;26.012;2023-08-17T05:46:27;100548.44;;;27.66;100.00
19777;BME280;10047;42.490;26.012;2023-08-17T05:48:52;100515.97;;;27.50;100.00
19777;BME280;10047;42.490;26.012;2023-08-17T05:51:18;100556.53;;;27.92;100.00
19777;BME280;10047;42.490;26.012;2023-08-17T05:53:43;100549.25;;;28.05;100.00
19777;BME280;10047;42.490;26.012;2023-08-17T05:56:09;100555.28;;;28.24;100.00
19777;BME280;10047;42.490;26.012;2023-08-17T05:58:34;100515.00;;;27.51;100.00
19777;BME280;10047;42.490;26.012;2023-08-17T06:01:10;100501.91;;;27.79;100.00
19777;BME280;10047;42.490;26.012;2023-08-17T06:03:36;100542.34;;;28.13;100.00
19777;BME280;10047;42.490;26.012;2023-08-17T06:06:02;100507.63;;;28.31;100.00
19777;BME280;10047;42.490;26.012;2023-08-17T06:08:28;100500.69;;;28.39;100.00
19777;BME280;10047;42.490;26.012;2023-08-17T06:10:53;100540.75;;;28.86;100.00
19777;BME280;10047;42.490;26.012;2023-08-17T06:13:19;100562.31;;;28.70;100.00
19777;BME280;10047;42.490;26.012;2023-08-17T06:15:44;100547.22;;;29.36;100.00
19777;BME280;10047;42.490;26.012;2023-08-17T06:18:10;100485.09;;;29.01;100.00
19777;BME280;10047;42.490;26.012;2023-08-17T06:20:35;100536.72;;;29.89;100.00
19777;BME280;10047;42.490;26.012;2023-08-17T06:23:00;100536.69;;;29.81;100.00
19777;BME280;10047;42.490;26.012;2023-08-17T06:25:26;100533.13;;;30.16;100.00
19777;BME280;10047;42.490;26.012;2023-08-17T06:27:51;100486.16;;;29.61;100.00
19777;BME280;10047;42.490;26.012;2023-08-17T06:30:17;100486.06;;;29.71;100.00
19777;BME280;10047;42.490;26.012;2023-08-17T06:32:43;100550.88;;;29.96;100.00
19777;BME280;10047;42.490;26.012;2023-08-17T06:35:08;100494.03;;;29.79;100.00
19777;BME280;10047;42.490;26.012;2023-08-17T06:37:34;100503.69;;;29.61;100.00
19777;BME280;10047;42.490;26.012;2023-08-17T06:40:00;100558.00;;;30.29;100.00
19777;BME280;10047;42.490;26.012;2023-08-17T06:42:25;100506.59;;;29.93;100.00
19777;BME280;10047;42.490;26.012;2023-08-17T06:44:51;100509.06;;;30.46;100.00
19777;BME280;10047;42.490;26.012;2023-08-17T06:47:16;100527.59;;;29.93;100.00
19777;BME280;10047;42.490;26.012;2023-08-17T06:49:41;100514.09;;;29.88;100.00
19777;BME280;10047;42.490;26.012;2023-08-17T06:52:07;100507.72;;;29.38;100.00
19777;BME280;10047;42.490;26.012;2023-08-17T06:54:32;100549.28;;;30.03;100.00
19777;BME280;10047;42.490;26.012;2023-08-17T06:56:58;100552.59;;;29.87;100.00
19777;BME280;10047;42.490;26.012;2023-08-17T06:59:24;100537.53;;;30.33;100.00
19777;BME280;10047;42.490;26.012;2023-08-17T07:01:49;100536.06;;;30.30;100.00
19777;BME280;10047;42.490;26.012;2023-08-17T07:04:15;100483.47;;;29.53;100.00
19777;BME280;10047;42.490;26.012;2023-08-17T07:06:40;100535.97;;;29.97;100.00
19777;BME280;10047;42.490;26.012;2023-08-17T07:09:06;100523.75;;;30.13;100.00
19777;BME280;10047;42.490;26.012;2023-08-17T07:11:32;100525.72;;;30.70;100.00
19777;BME280;10047;42.490;26.012;2023-08-17T07:13:57;100516.13;;;30.53;100.00
19777;BME280;10047;42.490;26.012;2023-08-17T07:16:23;100456.75;;;30.68;100.00
19777;BME280;10047;42.490;26.012;2023-08-17T07:18:48;100499.84;;;31.41;100.00
19777;BME280;10047;42.490;26.012;2023-08-17T07:21:14;100439.28;;;30.93;100.00
19777;BME280;10047;42.490;26.012;2023-08-17T07:23:44;100474.47;;;31.16;100.00
19777;BME280;10047;42.490;26.012;2023-08-17T07:26:09;100493.66;;;30.93;100.00
19777;BME280;10047;42.490;26.012;2023-08-17T07:28:35;100451.13;;;31.05;100.00
19777;BME280;10047;42.490;26.012;2023-08-17T07:31:00;100453.28;;;31.02;100.00
19777;BME280;10047;42.490;26.012;2023-08-17T07:33:26;100406.63;;;31.44;100.00
19777;BME280;10047;42.490;26.012;2023-08-17T07:35:51;100440.28;;;31.97;100.00
19777;BME280;10047;42.490;26.012;2023-08-17T07:38:19;100399.06;;;30.93;100.00
19777;BME280;10047;42.490;26.012;2023-08-17T07:40:45;100458.03;;;31.22;100.00
19777;BME280;10047;42.490;26.012;2023-08-17T07:43:11;100476.59;;;31.05;100.00
19777;BME280;10047;42.490;26.012;2023-08-17T07:45:36;100465.81;;;31.56;100.00
19777;BME280;10047;42.490;26.012;2023-08-17T07:48:03;100409.09;;;31.13;100.00
19777;BME280;10047;42.490;26.012;2023-08-17T07:50:28;100418.47;;;31.48;100.00
19777;BME280;10047;42.490;26.012;2023-08-17T07:52:53;100433.72;;;31.93;100.00
19777;BME280;10047;42.490;26.012;2023-08-17T07:55:19;100368.31;;;32.20;100.00
19777;BME280;10047;42.490;26.012;2023-08-17T07:57:44;100423.72;;;32.27;100.00
19777;BME280;10047;42.490;26.012;2023-08-17T08:00:10;100401.84;;;31.55;100.00
19777;BME280;10047;42.490;26.012;2023-08-17T08:02:36;100412.41;;;32.18;100.00
19777;BME280;10047;42.490;26.012;2023-08-17T08:05:01;100467.59;;;31.63;100.00
19777;BME280;10047;42.490;26.012;2023-08-17T08:07:27;100451.28;;;32.08;100.00
19777;BME280;10047;42.490;26.012;2023-08-17T08:09:52;100395.59;;;32.19;100.00
19777;BME280;10047;42.490;26.012;2023-08-17T08:12:18;100442.47;;;32.32;100.00
19777;BME280;10047;42.490;26.012;2023-08-17T08:14:43;100451.78;;;32.04;100.00
19777;BME280;10047;42.490;26.012;2023-08-17T08:17:08;100423.53;;;32.67;100.00
19777;BME280;10047;42.490;26.012;2023-08-17T08:19:35;100480.25;;;31.84;100.00
19777;BME280;10047;42.490;26.012;2023-08-17T08:22:00;100441.16;;;31.65;100.00
19777;BME280;10047;42.490;26.012;2023-08-17T08:24:28;100444.47;;;32.61;100.00
19777;BME280;10047;42.490;26.012;2023-08-17T08:26:58;100455.94;;;32.29;100.00
19777;BME280;10047;42.490;26.012;2023-08-17T08:29:24;100371.66;;;32.90;100.00
19777;BME280;10047;42.490;26.012;2023-08-17T08:31:49;100426.06;;;32.83;100.00
19777;BME280;10047;42.490;26.012;2023-08-17T08:34:15;100466.63;;;32.35;100.00
19777;BME280;10047;42.490;26.012;2023-08-17T08:36:40;100455.00;;;32.91;100.00
19777;BME280;10047;42.490;26.012;2023-08-17T08:39:05;100404.09;;;33.73;100.00
19777;BME280;10047;42.490;26.012;2023-08-17T08:41:31;100406.00;;;33.94;100.00
19777;BME280;10047;42.490;26.012;2023-08-17T08:43:58;100340.03;;;33.79;100.00
19777;BME280;10047;42.490;26.012;2023-08-17T08:46:26;100423.19;;;33.01;100.00
19777;BME280;10047;42.490;26.012;2023-08-17T08:48:52;100429.00;;;32.88;100.00
19777;BME280;10047;42.490;26.012;2023-08-17T08:51:25;100406.47;;;32.55;100.00
19777;BME280;10047;42.490;26.012;2023-08-17T08:54:00;100386.88;;;33.92;100.00
19777;BME280;10047;42.490;26.012;2023-08-17T08:56:28;100370.41;;;34.55;100.00
19777;BME280;10047;42.490;26.012;2023-08-17T08:58:57;100390.88;;;33.88;100.00
19777;BME280;10047;42.490;26.012;2023-08-17T09:01:24;100409.69;;;33.18;100.00
19777;BME280;10047;42.490;26.012;2023-08-17T09:03:50;100386.53;;;33.95;100.00
19777;BME280;10047;42.490;26.012;2023-08-17T09:06:18;100339.56;;;33.61;100.00
19777;BME280;10047;42.490;26.012;2023-08-17T09:08:45;100342.63;;;33.36;100.00
19777;BME280;10047;42.490;26.012;2023-08-17T09:11:10;100338.91;;;33.74;100.00
19777;BME280;10047;42.490;26.012;2023-08-17T09:13:36;100390.38;;;34.07;100.00
19777;BME280;10047;42.490;26.012;2023-08-17T09:16:01;100376.94;;;33.50;100.00
19777;BME280;10047;42.490;26.012;2023-08-17T09:18:27;100404.16;;;33.51;100.00
19777;BME280;10047;42.490;26.012;2023-08-17T09:20:53;100360.16;;;33.28;100.00
19777;BME280;10047;42.490;26.012;2023-08-17T09:23:21;100419.06;;;33.58;100.00
19777;BME280;10047;42.490;26.012;2023-08-17T09:25:48;100409.00;;;33.91;100.00
19777;BME280;10047;42.490;26.012;2023-08-17T09:28:15;100379.22;;;33.53;100.00
19777;BME280;10047;42.490;26.012;2023-08-17T09:30:55;100396.34;;;34.66;100.00
19777;BME280;10047;42.490;26.012;2023-08-17T09:33:28;100355.78;;;33.21;100.00
19777;BME280;10047;42.490;26.012;2023-08-17T09:35:55;100354.84;;;33.51;100.00
19777;BME280;10047;42.490;26.012;2023-08-17T09:38:21;100397.63;;;34.20;100.00
19777;BME280;10047;42.490;26.012;2023-08-17T09:40:47;100354.72;;;33.45;100.00
19777;BME280;10047;42.490;26.012;2023-08-17T09:43:17;100400.50;;;34.54;100.00
19777;BME280;10047;42.490;26.012;2023-08-17T09:45:44;100429.09;;;33.25;100.00
19777;BME280;10047;42.490;26.012;2023-08-17T09:48:14;100404.72;;;32.78;100.00
19777;BME280;10047;42.490;26.012;2023-08-17T09:50:42;100357.09;;;33.83;100.00
19777;BME280;10047;42.490;26.012;2023-08-17T09:53:12;100418.63;;;32.87;100.00
19777;BME280;10047;42.490;26.012;2023-08-17T09:55:39;100434.19;;;33.64;100.00
19777;BME280;10047;42.490;26.012;2023-08-17T09:58:06;100387.44;;;32.76;100.00
19777;BME280;10047;42.490;26.012;2023-08-17T10:00:33;100420.47;;;33.46;100.00
19777;BME280;10047;42.490;26.012;2023-08-17T10:03:02;100394.72;;;32.88;100.00
19777;BME280;10047;42.490;26.012;2023-08-17T10:05:30;100443.41;;;33.83;100.00
19777;BME280;10047;42.490;26.012;2023-08-17T10:07:57;100439.97;;;34.12;100.00
19777;BME280;10047;42.490;26.012;2023-08-17T10:10:27;100366.13;;;34.18;100.00
19777;BME280;10047;42.490;26.012;2023-08-17T10:15:33;100456.97;;;33.43;100.00
19777;BME280;10047;42.490;26.012;2023-08-17T10:18:35;100491.59;;;32.86;100.00
19777;BME280;10047;42.490;26.012;2023-08-17T10:21:07;100465.03;;;32.96;100.00
19777;BME280;10047;42.490;26.012;2023-08-17T10:23:35;100394.97;;;33.24;100.00
19777;BME280;10047;42.490;26.012;2023-08-17T10:26:03;100441.56;;;32.56;100.00
19777;BME280;10047;42.490;26.012;2023-08-17T10:28:31;100474.38;;;33.06;100.00
19777;BME280;10047;42.490;26.012;2023-08-17T10:30:57;100448.66;;;33.08;100.00
19777;BME280;10047;42.490;26.012;2023-08-17T10:33:24;100500.81;;;32.90;100.00
19777;BME280;10047;42.490;26.012;2023-08-17T10:35:51;100498.75;;;32.78;100.00
19777;BME280;10047;42.490;26.012;2023-08-17T10:38:17;100486.81;;;32.59;100.00
19777;BME280;10047;42.490;26.012;2023-08-17T10:40:43;100447.34;;;32.51;100.00
19777;BME280;10047;42.490;26.012;2023-08-17T10:43:09;100487.41;;;33.08;100.00
19777;BME280;10047;42.490;26.012;2023-08-17T10:45:36;100421.31;;;32.79;100.00
19777;BME280;10047;42.490;26.012;2023-08-17T10:50:33;100447.41;;;33.79;100.00
19777;BME280;10047;42.490;26.012;2023-08-17T10:53:04;100471.34;;;33.17;100.00
19777;BME280;10047;42.490;26.012;2023-08-17T10:55:40;100457.16;;;33.78;100.00
19777;BME280;10047;42.490;26.012;2023-08-17T10:58:06;100382.72;;;33.31;100.00
19777;BME280;10047;42.490;26.012;2023-08-17T11:00:37;100404.28;;;33.35;100.00
19777;BME280;10047;42.490;26.012;2023-08-17T11:03:04;100448.03;;;33.95;100.00
19777;BME280;10047;42.490;26.012;2023-08-17T11:05:39;100456.13;;;33.42;100.00
19777;BME280;10047;42.490;26.012;2023-08-17T11:08:06;100457.66;;;33.37;100.00
19777;BME280;10047;42.490;26.012;2023-08-17T11:10:32;100436.50;;;33.67;100.00
19777;BME280;10047;42.490;26.012;2023-08-17T11:12:59;100414.16;;;34.43;100.00
19777;BME280;10047;42.490;26.012;2023-08-17T11:15:37;100424.91;;;33.97;100.00
19777;BME280;10047;42.490;26.012;2023-08-17T11:18:07;100362.00;;;34.16;100.00
19777;BME280;10047;42.490;26.012;2023-08-17T11:20:33;100360.09;;;34.09;100.00
19777;BME280;10047;42.490;26.012;2023-08-17T11:22:59;100295.22;;;34.57;100.00
19777;BME280;10047;42.490;26.012;2023-08-17T11:25:26;100364.44;;;34.67;100.00
19777;BME280;10047;42.490;26.012;2023-08-17T11:27:52;100395.53;;;34.65;100.00
19777;BME280;10047;42.490;26.012;2023-08-17T11:30:18;100380.06;;;34.12;100.00
19777;BME280;10047;42.490;26.012;2023-08-17T11:32:45;100360.56;;;34.13;100.00
19777;BME280;10047;42.490;26.012;2023-08-17T11:35:10;100393.78;;;34.37;100.00
19777;BME280;10047;42.490;26.012;2023-08-17T11:37:36;100411.09;;;34.25;100.00
19777;BME280;10047;42.490;26.012;2023-08-17T11:40:02;100383.56;;;34.69;100.00
19777;BME280;10047;42.490;26.012;2023-08-17T11:42:27;100336.28;;;34.39;100.00
19777;BME280;10047;42.490;26.012;2023-08-17T11:44:52;100377.97;;;34.79;100.00
19777;BME280;10047;42.490;26.012;2023-08-17T11:47:18;100373.03;;;35.18;100.00
19777;BME280;10047;42.490;26.012;2023-08-17T11:49:47;100310.44;;;34.98;100.00
19777;BME280;10047;42.490;26.012;2023-08-17T11:52:13;100371.78;;;34.51;100.00
19777;BME280;10047;42.490;26.012;2023-08-17T11:54:41;100400.25;;;34.34;100.00
19777;BME280;10047;42.490;26.012;2023-08-17T11:57:07;100406.16;;;34.36;100.00
19777;BME280;10047;42.490;26.012;2023-08-17T11:59:33;100410.72;;;34.13;100.00
19777;BME280;10047;42.490;26.012;2023-08-17T12:01:59;100401.50;;;34.38;100.00
19777;BME280;10047;42.490;26.012;2023-08-17T12:04:26;100344.22;;;34.39;100.00
19777;BME280;10047;42.490;26.012;2023-08-17T12:06:51;100391.56;;;34.40;100.00
19777;BME280;10047;42.490;26.012;2023-08-17T12:09:17;100385.25;;;34.05;100.00
19777;BME280;10047;42.490;26.012;2023-08-17T12:11:45;100416.88;;;33.99;100.00
19777;BME280;10047;42.490;26.012;2023-08-17T12:14:11;100352.47;;;34.15;100.00
19777;BME280;10047;42.490;26.012;2023-08-17T12:16:47;100324.91;;;33.59;100.00
19777;BME280;10047;42.490;26.012;2023-08-17T12:19:16;100394.47;;;34.81;100.00
19777;BME280;10047;42.490;26.012;2023-08-17T12:21:45;100420.75;;;34.32;100.00
19777;BME280;10047;42.490;26.012;2023-08-17T12:24:11;100371.22;;;34.20;100.00
19777;BME280;10047;42.490;26.012;2023-08-17T12:26:41;100399.59;;;34.32;100.00
19777;BME280;10047;42.490;26.012;2023-08-17T12:29:08;100319.78;;;34.72;100.00
19777;BME280;10047;42.490;26.012;2023-08-17T12:31:34;100341.25;;;34.90;100.00
19777;BME280;10047;42.490;26.012;2023-08-17T12:34:00;100351.00;;;34.62;100.00
19777;BME280;10047;42.490;26.012;2023-08-17T12:36:26;100373.06;;;34.76;100.00
19777;BME280;10047;42.490;26.012;2023-08-17T12:38:52;100380.69;;;35.07;100.00